ADDS METAR Data INFO
IDs: Format: Raw Decoded Include TAF

Data at: 2110 UTC 22 Oct 2017

KF70 222055Z AUTO 00000KT 10SM CLR 33/M04 A3011 RMK AO1
KF70 222035Z AUTO 36003KT 10SM CLR 33/M04 A3011 RMK AO1
KF70 222015Z AUTO 36006KT 10SM CLR 32/M04 A3013 RMK AO1
KF70 221955Z AUTO 32005KT 10SM CLR 32/M04 A3013 RMK AO1
KF70 221935Z AUTO 36007KT 330V030 10SM CLR 31/M04 A3014 RMK AO1
KF70 221915Z AUTO 36008KT 10SM CLR 31/M04 A3015 RMK AO1
KF70 221855Z AUTO 33007KT 310V010 10SM CLR 31/M04 A3016 RMK AO1
KF70 221835Z AUTO 35009KT 310V010 10SM CLR 30/M04 A3016 RMK AO1
KF70 221815Z AUTO 35007KT 10SM CLR 29/M04 A3017 RMK AO1
KF70 221755Z AUTO 01008G14KT 10SM CLR 28/M04 A3017 RMK AO1
KF70 221735Z AUTO 35009KT 10SM CLR 26/M04 A3017 RMK AO1
KF70 221715Z AUTO 35005KT 10SM CLR 25/M03 A3017 RMK AO1
KF70 221655Z AUTO 34006KT 10SM CLR 24/M03 A3017 RMK AO1
KF70 221635Z AUTO 36006KT 10SM CLR 23/M03 A3017 RMK AO1
KF70 221610Z AUTO 36006KT 10SM CLR 21/M02 A3017 RMK AO1
KF70 221555Z AUTO 01006KT 10SM CLR 20/M02 A3017 RMK AO1
KF70 221535Z AUTO 01006KT 10SM CLR 18/M02 A3017 RMK AO1
KF70 221515Z AUTO 02006KT 10SM CLR 15/M01 A3016 RMK AO1
KF70 221455Z AUTO 02004KT 10SM CLR 14/M01 A3016 RMK AO1
KF70 221435Z AUTO 03005KT 10SM CLR 13/M01 A3015 RMK AO1
KF70 221415Z AUTO 01003KT 10SM CLR 12/M01 A3015 RMK AO1
KF70 221355Z AUTO 02006KT 10SM CLR 12/M01 A3014 RMK AO1
KF70 221335Z AUTO 00000KT 10SM CLR 12/M01 A3014 RMK AO1
KF70 221315Z AUTO 36003KT 10SM CLR 12/M01 A3014 RMK AO1
KF70 221255Z AUTO 36004KT 10SM CLR 12/M01 A3014 RMK AO1
KF70 221235Z AUTO 00000KT 10SM CLR 12/M01 A3014 RMK AO1
KF70 221215Z AUTO 02003KT 10SM CLR 12/M00 A3014 RMK AO1
KF70 221155Z AUTO 02003KT 10SM CLR 12/00 A3014 RMK AO1
KF70 221135Z AUTO 05004KT 10SM CLR 12/00 A3014 RMK AO1
KF70 221115Z AUTO 04004KT 10SM CLR 12/M01 A3014 RMK AO1
KF70 221055Z AUTO 02004KT 10SM CLR 13/M01 A3015 RMK AO1
KF70 221035Z AUTO 00000KT 10SM CLR 13/M01 A3015 RMK AO1
KF70 221015Z AUTO 06003KT 10SM CLR 14/M01 A3015 RMK AO1
KF70 220955Z AUTO 02004KT 10SM CLR 14/M01 A3015 RMK AO1
KF70 220935Z AUTO 02004KT 10SM CLR 13/M00 A3015 RMK AO1
KF70 220915Z AUTO 03005KT 10SM CLR 14/M00 A3016 RMK AO1
KF70 220855Z AUTO 03005KT 10SM CLR 14/M01 A3016 RMK AO1
KF70 220835Z AUTO 03005KT 10SM CLR 13/M01 A3016 RMK AO1
KF70 220815Z AUTO 01004KT 10SM CLR 14/M01 A3015 RMK AO1
KF70 220755Z AUTO 03005KT 10SM CLR 13/00 A3015 RMK AO1
KF70 220735Z AUTO 01004KT 10SM CLR 14/02 A3015 RMK AO1
KF70 220715Z AUTO 02003KT 10SM CLR 14/04 A3015 RMK AO1
KF70 220655Z AUTO 00000KT 10SM CLR 14/04 A3014 RMK AO1
KF70 220635Z AUTO 00000KT 10SM CLR 16/03 A3014 RMK AO1
KF70 220615Z AUTO 00000KT 10SM CLR 17/02 A3014 RMK AO1
KF70 220555Z AUTO 05003KT 10SM CLR 17/01 A3014 RMK AO1
KF70 220535Z AUTO 04004KT 10SM CLR 18/00 A3014 RMK AO1
KF70 220515Z AUTO 04003KT 10SM CLR 18/01 A3013 RMK AO1
KF70 220455Z AUTO 05003KT 10SM CLR 18/00 A3013 RMK AO1
KF70 220435Z AUTO 05004KT 10SM CLR 19/M00 A3011 RMK AO1
KF70 220415Z AUTO 00000KT 10SM CLR 19/M01 A3011 RMK AO1
KF70 220355Z AUTO 36003KT 10SM CLR 19/M02 A3010 RMK AO1
KF70 220335Z AUTO 02004KT 10SM CLR 20/M03 A3010 RMK AO1
KF70 220315Z AUTO 02003KT 10SM CLR 21/M03 A3009 RMK AO1
KF70 220255Z AUTO 02003KT 10SM CLR 21/M02 A3008 RMK AO1
KF70 220235Z AUTO 01003KT 10SM CLR 21/05 A3008 RMK AO1
KF70 220215Z AUTO 00000KT 10SM CLR 22/04 A3008 RMK AO1
KF70 220155Z AUTO 34003KT 10SM CLR 24/M04 A3006 RMK AO1
KF70 220135Z AUTO 07003KT 10SM CLR 24/M04 A3006 RMK AO1
KF70 220115Z AUTO 34003KT 10SM CLR 25/M04 A3005 RMK AO1
KF70 220055Z AUTO 33003KT 10SM CLR 26/M04 A3004 RMK AO1
KF70 220035Z AUTO 33007KT 10SM CLR 27/M04 A3003 RMK AO1
KF70 220015Z AUTO 33005KT 10SM CLR 27/M04 A3003 RMK AO1
KF70 212355Z AUTO 31005KT 10SM CLR 28/M04 A3002 RMK AO1
KF70 212335Z AUTO 34005KT 10SM CLR 28/M03 A3001 RMK AO1
KF70 212315Z AUTO 34004KT 10SM CLR 28/M02 A3001 RMK AO1
KF70 212255Z AUTO 34007KT 10SM CLR 28/M02 A3001 RMK AO1
KF70 212235Z AUTO 01008KT 10SM CLR 28/M02 A3001 RMK AO1
KF70 212215Z AUTO 34004KT 10SM CLR 28/M01 A3001 RMK AO1
KF70 212155Z AUTO 32003KT 10SM CLR 28/M01 A3001 RMK AO1
KF70 212135Z AUTO 30007KT 260V340 10SM CLR 27/M01 A3001 RMK AO1
KF70 212115Z AUTO 28005KT 10SM CLR 27/M00 A3001 RMK AO1
KF70 212055Z AUTO 34003KT 10SM CLR 27/00 A3002 RMK AO1
KF70 212035Z AUTO 34006KT 10SM CLR 26/01 A3003 RMK AO1
KF70 212015Z AUTO 02006KT 10SM CLR 25/02 A3003 RMK AO1
KF70 211955Z AUTO 02007KT 340V050 10SM CLR 25/04 A3004 RMK AO1
KF70 211935Z AUTO 36006KT 10SM CLR 24/05 A3005 RMK AO1
KF70 211915Z AUTO 36005KT 10SM CLR 23/06 A3006 RMK AO1
KF70 211855Z AUTO 35005KT 10SM CLR 22/07 A3006 RMK AO1
KF70 211835Z AUTO 30005KT 10SM CLR 21/07 A3007 RMK AO1
KF70 211815Z AUTO 31005KT 10SM CLR 20/07 A3007 RMK AO1
KF70 211755Z AUTO 32004KT 10SM CLR 19/08 A3007 RMK AO1
KF70 211735Z AUTO 01005KT 10SM CLR 18/09 A3008 RMK AO1
KF70 211715Z AUTO 32004KT 10SM CLR 17/10 A3008 RMK AO1
KF70 211655Z AUTO 33004KT 10SM CLR 17/10 A3008 RMK AO1
KF70 211635Z AUTO 36005KT 10SM CLR 16/10 A3007 RMK AO1
KF70 211615Z AUTO 35004KT 10SM CLR 15/10 A3006 RMK AO1
KF70 211555Z AUTO 35004KT 10SM CLR 14/11 A3006 RMK AO1
KF70 211535Z AUTO 00000KT 10SM CLR 13/10 A3006 RMK AO1
KF70 211515Z AUTO 00000KT 10SM CLR 12/10 A3005 RMK AO1
KF70 211455Z AUTO 00000KT 10SM CLR 10/09 A3004 RMK AO1
KF70 211435Z AUTO 00000KT 10SM CLR 09/08 A3004 RMK AO1
KF70 211415Z AUTO 00000KT 10SM CLR 10/09 A3004 RMK AO1
KF70 211355Z AUTO 03003KT 10SM CLR 10/09 A3003 RMK AO1
KF70 211335Z AUTO 00000KT 10SM CLR 09/08 A3002 RMK AO1
KF70 211315Z AUTO 00000KT 10SM SCT028 10/09 A3002 RMK AO1
KF70 211255Z AUTO 00000KT 10SM BKN028 10/08 A3002 RMK AO1
KF70 211235Z AUTO 00000KT 10SM BKN028 10/09 A3002 RMK AO1
KF70 211215Z AUTO 00000KT 10SM CLR 10/09 A3001 RMK AO1
KF70 211155Z AUTO 00000KT 10SM CLR 10/09 A3001 RMK AO1
KF70 211135Z AUTO 11003KT 10SM CLR 10/08 A3001 RMK AO1
KF70 211115Z AUTO 13003KT 10SM CLR 11/09 A3000 RMK AO1
KF70 211055Z AUTO 00000KT 10SM CLR 11/09 A3001 RMK AO1
KF70 211035Z AUTO 00000KT 10SM CLR 11/10 A3000 RMK AO1
KF70 211015Z AUTO 00000KT 10SM CLR 11/10 A3000 RMK AO1
KF70 210955Z AUTO 00000KT 10SM CLR 12/10 A3000 RMK AO1
KF70 210935Z AUTO 00000KT 10SM CLR 12/10 A3001 RMK AO1
KF70 210915Z AUTO 00000KT 10SM CLR 12/10 A3001 RMK AO1